sensor_id;sensor_type;location;lat;lon;timestamp;pressure;altitude;pressure_sealevel;temperature;humidity
20003;BME280;10162;41.600;23.806;2023-04-30T00:06:00;94911.53;;;9.62;100.00
20003;BME280;10162;41.600;23.806;2023-04-30T00:08:26;94910.09;;;9.59;100.00
20003;BME280;10162;41.600;23.806;2023-04-30T00:11:04;94912.44;;;9.47;100.00
20003;BME280;10162;41.600;23.806;2023-04-30T00:13:30;94909.66;;;9.49;100.00
20003;BME280;10162;41.600;23.806;2023-04-30T00:15:58;94888.72;;;9.36;100.00
20003;BME280;10162;41.600;23.806;2023-04-30T00:18:24;94911.13;;;8.96;100.00
20003;BME280;10162;41.600;23.806;2023-04-30T00:23:44;94899.19;;;9.42;100.00
20003;BME280;10162;41.600;23.806;2023-04-30T00:26:25;94910.28;;;9.23;100.00
20003;BME280;10162;41.600;23.806;2023-04-30T00:28:57;94908.69;;;8.88;100.00
20003;BME280;10162;41.600;23.806;2023-04-30T00:31:38;94899.81;;;8.61;100.00
20003;BME280;10162;41.600;23.806;2023-04-30T00:34:05;94906.75;;;9.03;100.00
20003;BME280;10162;41.600;23.806;2023-04-30T00:36:31;94877.84;;;8.70;100.00
20003;BME280;10162;41.600;23.806;2023-04-30T00:39:04;94878.91;;;8.54;100.00
20003;BME280;10162;41.600;23.806;2023-04-30T00:41:34;94906.28;;;8.44;100.00
20003;BME280;10162;41.600;23.806;2023-04-30T00:44:03;94878.97;;;8.18;100.00
20003;BME280;10162;41.600;23.806;2023-04-30T00:46:29;94905.19;;;8.17;100.00
20003;BME280;10162;41.600;23.806;2023-04-30T00:48:55;94889.50;;;8.10;100.00
20003;BME280;10162;41.600;23.806;2023-04-30T00:51:23;94880.41;;;8.21;100.00
20003;BME280;10162;41.600;23.806;2023-04-30T00:53:48;94885.41;;;8.22;100.00
20003;BME280;10162;41.600;23.806;2023-04-30T00:56:14;94908.44;;;8.19;100.00
20003;BME280;10162;41.600;23.806;2023-04-30T00:58:44;94913.44;;;8.35;100.00
20003;BME280;10162;41.600;23.806;2023-04-30T01:01:44;94928.53;;;8.25;100.00
20003;BME280;10162;41.600;23.806;2023-04-30T01:04:10;94890.56;;;8.16;100.00
20003;BME280;10162;41.600;23.806;2023-04-30T01:06:48;94905.44;;;8.37;100.00
20003;BME280;10162;41.600;23.806;2023-04-30T01:09:15;94912.53;;;7.92;100.00
20003;BME280;10162;41.600;23.806;2023-04-30T01:14:30;94892.66;;;8.06;100.00
20003;BME280;10162;41.600;23.806;2023-04-30T01:17:15;94894.03;;;8.23;100.00
20003;BME280;10162;41.600;23.806;2023-04-30T01:19:45;94912.06;;;8.03;100.00
20003;BME280;10162;41.600;23.806;2023-04-30T01:22:44;94905.59;;;8.14;100.00
20003;BME280;10162;41.600;23.806;2023-04-30T01:25:43;94912.25;;;8.02;100.00
20003;BME280;10162;41.600;23.806;2023-04-30T01:28:17;94864.50;;;7.23;100.00
20003;BME280;10162;41.600;23.806;2023-04-30T01:30:48;94896.56;;;7.44;100.00
20003;BME280;10162;41.600;23.806;2023-04-30T01:33:15;94897.06;;;7.69;100.00
20003;BME280;10162;41.600;23.806;2023-04-30T01:44:48;94908.06;;;7.50;100.00
20003;BME280;10162;41.600;23.806;2023-04-30T01:47:35;94889.03;;;7.35;100.00
20003;BME280;10162;41.600;23.806;2023-04-30T01:50:19;94913.97;;;7.44;100.00
20003;BME280;10162;41.600;23.806;2023-04-30T01:52:51;94885.13;;;7.75;100.00
20003;BME280;10162;41.600;23.806;2023-04-30T01:55:29;94903.41;;;7.45;100.00
20003;BME280;10162;41.600;23.806;2023-04-30T01:58:09;94917.09;;;7.69;100.00
20003;BME280;10162;41.600;23.806;2023-04-30T02:00:37;94897.63;;;7.35;100.00
20003;BME280;10162;41.600;23.806;2023-04-30T02:06:55;94882.47;;;6.80;100.00
20003;BME280;10162;41.600;23.806;2023-04-30T02:09:30;94867.34;;;7.13;100.00
20003;BME280;10162;41.600;23.806;2023-04-30T02:19:28;94891.81;;;6.89;100.00
20003;BME280;10162;41.600;23.806;2023-04-30T02:22:41;94895.53;;;6.72;100.00
20003;BME280;10162;41.600;23.806;2023-04-30T02:25:12;94879.72;;;6.82;100.00
20003;BME280;10162;41.600;23.806;2023-04-30T02:27:50;94883.16;;;6.59;100.00
20003;BME280;10162;41.600;23.806;2023-04-30T02:30:27;94879.22;;;6.49;100.00
20003;BME280;10162;41.600;23.806;2023-04-30T02:33:00;94898.72;;;6.82;100.00
20003;BME280;10162;41.600;23.806;2023-04-30T02:46:36;94883.81;;;6.39;100.00
20003;BME280;10162;41.600;23.806;2023-04-30T02:49:12;94912.03;;;6.64;100.00
20003;BME280;10162;41.600;23.806;2023-04-30T02:51:58;94921.66;;;6.93;100.00
20003;BME280;10162;41.600;23.806;2023-04-30T02:54:24;94921.91;;;6.84;100.00
20003;BME280;10162;41.600;23.806;2023-04-30T02:56:50;94876.69;;;6.18;100.00
20003;BME280;10162;41.600;23.806;2023-04-30T02:59:25;94872.31;;;6.18;100.00
20003;BME280;10162;41.600;23.806;2023-04-30T03:03:17;94913.13;;;6.47;100.00
20003;BME280;10162;41.600;23.806;2023-04-30T03:13:52;94923.50;;;6.70;100.00
20003;BME280;10162;41.600;23.806;2023-04-30T03:16:42;94894.19;;;6.61;100.00
20003;BME280;10162;41.600;23.806;2023-04-30T03:19:38;94925.72;;;6.36;100.00
20003;BME280;10162;41.600;23.806;2023-04-30T03:26:44;94897.78;;;6.60;100.00
20003;BME280;10162;41.600;23.806;2023-04-30T03:29:11;94911.16;;;6.49;100.00
20003;BME280;10162;41.600;23.806;2023-04-30T03:31:45;94902.63;;;6.41;100.00
20003;BME280;10162;41.600;23.806;2023-04-30T03:34:12;94893.84;;;6.64;100.00
20003;BME280;10162;41.600;23.806;2023-04-30T03:36:37;94912.84;;;6.42;100.00
20003;BME280;10162;41.600;23.806;2023-04-30T03:42:37;94914.69;;;6.56;100.00
20003;BME280;10162;41.600;23.806;2023-04-30T03:45:12;94911.00;;;6.51;100.00
20003;BME280;10162;41.600;23.806;2023-04-30T03:47:39;94910.47;;;6.55;100.00
20003;BME280;10162;41.600;23.806;2023-04-30T03:53:55;94947.41;;;6.43;100.00
20003;BME280;10162;41.600;23.806;2023-04-30T04:07:17;94953.28;;;6.97;100.00
20003;BME280;10162;41.600;23.806;2023-04-30T04:09:44;94942.88;;;6.82;100.00
20003;BME280;10162;41.600;23.806;2023-04-30T04:12:10;94956.38;;;7.00;100.00
20003;BME280;10162;41.600;23.806;2023-04-30T04:14:36;94953.59;;;7.17;100.00
20003;BME280;10162;41.600;23.806;2023-04-30T04:17:02;94948.38;;;7.02;100.00
20003;BME280;10162;41.600;23.806;2023-04-30T04:19:32;94944.78;;;7.18;100.00
20003;BME280;10162;41.600;23.806;2023-04-30T04:24:58;94947.03;;;7.35;100.00
20003;BME280;10162;41.600;23.806;2023-04-30T04:27:28;94941.34;;;7.40;100.00
20003;BME280;10162;41.600;23.806;2023-04-30T04:30:01;94938.28;;;7.51;100.00
20003;BME280;10162;41.600;23.806;2023-04-30T04:32:49;94931.91;;;7.68;100.00
20003;BME280;10162;41.600;23.806;2023-04-30T04:36:27;94964.28;;;8.31;100.00
20003;BME280;10162;41.600;23.806;2023-04-30T04:39:17;94955.59;;;8.45;100.00
20003;BME280;10162;41.600;23.806;2023-04-30T04:46:19;94963.16;;;8.61;100.00
20003;BME280;10162;41.600;23.806;2023-04-30T04:49:03;94974.00;;;9.07;100.00
20003;BME280;10162;41.600;23.806;2023-04-30T04:51:55;94991.91;;;9.17;100.00
20003;BME280;10162;41.600;23.806;2023-04-30T04:54:21;94979.44;;;9.40;100.00
20003;BME280;10162;41.600;23.806;2023-04-30T04:56:47;94982.00;;;9.62;100.00
20003;BME280;10162;41.600;23.806;2023-04-30T04:59:16;94979.81;;;9.65;100.00
20003;BME280;10162;41.600;23.806;2023-04-30T05:01:56;94976.81;;;9.75;100.00
20003;BME280;10162;41.600;23.806;2023-04-30T05:04:22;94982.81;;;9.69;100.00
20003;BME280;10162;41.600;23.806;2023-04-30T05:06:48;94982.06;;;9.75;100.00
20003;BME280;10162;41.600;23.806;2023-04-30T05:09:18;94979.44;;;9.75;100.00
20003;BME280;10162;41.600;23.806;2023-04-30T05:14:48;94985.63;;;10.08;100.00
20003;BME280;10162;41.600;23.806;2023-04-30T05:17:15;94977.78;;;10.02;100.00
20003;BME280;10162;41.600;23.806;2023-04-30T05:19:41;94978.22;;;9.71;100.00
20003;BME280;10162;41.600;23.806;2023-04-30T05:22:15;94994.44;;;10.01;100.00
20003;BME280;10162;41.600;23.806;2023-04-30T05:24:41;94999.09;;;10.05;100.00
20003;BME280;10162;41.600;23.806;2023-04-30T05:27:07;94982.53;;;9.85;100.00
20003;BME280;10162;41.600;23.806;2023-04-30T05:29:33;94972.16;;;10.05;100.00
20003;BME280;10162;41.600;23.806;2023-04-30T05:32:00;94992.97;;;10.19;100.00
20003;BME280;10162;41.600;23.806;2023-04-30T05:34:26;94988.47;;;10.13;100.00
20003;BME280;10162;41.600;23.806;2023-04-30T05:36:52;94972.44;;;10.16;100.00
20003;BME280;10162;41.600;23.806;2023-04-30T05:39:19;94986.34;;;10.30;100.00
20003;BME280;10162;41.600;23.806;2023-04-30T05:42:05;94995.91;;;10.70;100.00
20003;BME280;10162;41.600;23.806;2023-04-30T05:44:31;94976.38;;;10.66;100.00
20003;BME280;10162;41.600;23.806;2023-04-30T05:46:56;94980.22;;;10.84;100.00
20003;BME280;10162;41.600;23.806;2023-04-30T05:49:22;94993.53;;;10.95;100.00
20003;BME280;10162;41.600;23.806;2023-04-30T05:51:56;94971.59;;;10.90;100.00
20003;BME280;10162;41.600;23.806;2023-04-30T05:54:25;94982.25;;;11.01;100.00
20003;BME280;10162;41.600;23.806;2023-04-30T05:56:51;94980.06;;;11.31;100.00
20003;BME280;10162;41.600;23.806;2023-04-30T05:59:17;94986.47;;;11.55;100.00
20003;BME280;10162;41.600;23.806;2023-04-30T06:02:08;95001.78;;;11.78;100.00
20003;BME280;10162;41.600;23.806;2023-04-30T06:04:36;94989.66;;;11.90;100.00
20003;BME280;10162;41.600;23.806;2023-04-30T06:07:01;94982.34;;;11.98;100.00
20003;BME280;10162;41.600;23.806;2023-04-30T06:09:27;94994.78;;;12.23;99.92
20003;BME280;10162;41.600;23.806;2023-04-30T06:11:57;94975.78;;;12.34;99.61
20003;BME280;10162;41.600;23.806;2023-04-30T06:14:23;94959.34;;;12.52;96.13
20003;BME280;10162;41.600;23.806;2023-04-30T06:16:49;94979.47;;;12.64;95.22
20003;BME280;10162;41.600;23.806;2023-04-30T06:19:15;94976.53;;;12.79;93.56
20003;BME280;10162;41.600;23.806;2023-04-30T06:21:42;94978.19;;;12.73;93.58
20003;BME280;10162;41.600;23.806;2023-04-30T06:28:02;94981.38;;;13.13;90.88
20003;BME280;10162;41.600;23.806;2023-04-30T06:30:30;94978.09;;;13.18;91.94
20003;BME280;10162;41.600;23.806;2023-04-30T06:32:56;94968.06;;;13.08;90.93
20003;BME280;10162;41.600;23.806;2023-04-30T06:35:22;94971.34;;;13.53;88.30
20003;BME280;10162;41.600;23.806;2023-04-30T06:37:47;94974.81;;;13.47;87.53
20003;BME280;10162;41.600;23.806;2023-04-30T06:40:13;94965.38;;;13.83;85.80
20003;BME280;10162;41.600;23.806;2023-04-30T06:42:41;94963.81;;;13.57;85.63
20003;BME280;10162;41.600;23.806;2023-04-30T06:45:07;94959.72;;;13.43;85.64
20003;BME280;10162;41.600;23.806;2023-04-30T06:47:33;94960.31;;;13.63;84.64
20003;BME280;10162;41.600;23.806;2023-04-30T06:50:01;94973.44;;;14.06;84.19
20003;BME280;10162;41.600;23.806;2023-04-30T06:52:29;94964.63;;;14.48;81.22
20003;BME280;10162;41.600;23.806;2023-04-30T06:54:56;94959.06;;;14.57;78.49
20003;BME280;10162;41.600;23.806;2023-04-30T06:57:21;94968.81;;;14.38;79.58
20003;BME280;10162;41.600;23.806;2023-04-30T06:59:47;94969.88;;;14.48;78.77
20003;BME280;10162;41.600;23.806;2023-04-30T07:02:13;94961.19;;;14.78;76.51
20003;BME280;10162;41.600;23.806;2023-04-30T07:04:41;94955.69;;;14.68;78.10
20003;BME280;10162;41.600;23.806;2023-04-30T07:07:06;94963.94;;;15.24;76.27
20003;BME280;10162;41.600;23.806;2023-04-30T07:09:33;94954.22;;;15.37;71.76
20003;BME280;10162;41.600;23.806;2023-04-30T07:12:06;94946.31;;;14.83;74.32
20003;BME280;10162;41.600;23.806;2023-04-30T07:14:34;94959.78;;;15.17;72.79
20003;BME280;10162;41.600;23.806;2023-04-30T07:16:59;94962.72;;;15.74;70.27
20003;BME280;10162;41.600;23.806;2023-04-30T07:19:26;94965.59;;;15.60;70.01
20003;BME280;10162;41.600;23.806;2023-04-30T07:25:13;94962.88;;;16.19;67.76
20003;BME280;10162;41.600;23.806;2023-04-30T07:27:39;94955.69;;;16.02;68.15
20003;BME280;10162;41.600;23.806;2023-04-30T07:30:06;94956.59;;;16.48;65.43
20003;BME280;10162;41.600;23.806;2023-04-30T07:35:40;94960.56;;;16.90;64.32
20003;BME280;10162;41.600;23.806;2023-04-30T07:38:05;94960.28;;;17.20;62.04
20003;BME280;10162;41.600;23.806;2023-04-30T07:40:32;94945.16;;;16.71;64.08
20003;BME280;10162;41.600;23.806;2023-04-30T07:42:58;94951.94;;;16.95;61.81
20003;BME280;10162;41.600;23.806;2023-04-30T07:45:24;94955.00;;;16.75;63.59
20003;BME280;10162;41.600;23.806;2023-04-30T07:47:49;94954.56;;;16.78;63.25
20003;BME280;10162;41.600;23.806;2023-04-30T07:50:17;94956.44;;;16.54;62.61
20003;BME280;10162;41.600;23.806;2023-04-30T07:52:44;94960.00;;;16.20;64.57
20003;BME280;10162;41.600;23.806;2023-04-30T07:55:13;94954.75;;;16.08;66.49
20003;BME280;10162;41.600;23.806;2023-04-30T07:57:39;94949.69;;;16.07;66.22
20003;BME280;10162;41.600;23.806;2023-04-30T08:00:06;94951.84;;;16.33;66.48
20003;BME280;10162;41.600;23.806;2023-04-30T08:02:38;94945.41;;;16.58;63.92
20003;BME280;10162;41.600;23.806;2023-04-30T08:05:04;94943.50;;;16.13;64.12
20003;BME280;10162;41.600;23.806;2023-04-30T08:07:30;94932.09;;;16.64;61.66
20003;BME280;10162;41.600;23.806;2023-04-30T08:09:56;94938.94;;;16.77;62.00
20003;BME280;10162;41.600;23.806;2023-04-30T08:12:21;94942.09;;;16.90;61.73
20003;BME280;10162;41.600;23.806;2023-04-30T08:14:47;94932.97;;;17.15;60.53
20003;BME280;10162;41.600;23.806;2023-04-30T08:17:13;94944.00;;;16.95;60.64
20003;BME280;10162;41.600;23.806;2023-04-30T08:19:45;94934.16;;;16.74;60.94
20003;BME280;10162;41.600;23.806;2023-04-30T08:22:16;94936.50;;;17.04;61.06
20003;BME280;10162;41.600;23.806;2023-04-30T08:24:43;94935.22;;;16.89;62.08
20003;BME280;10162;41.600;23.806;2023-04-30T08:27:08;94910.97;;;17.43;60.14
20003;BME280;10162;41.600;23.806;2023-04-30T08:29:34;94922.66;;;17.63;59.41
20003;BME280;10162;41.600;23.806;2023-04-30T08:35:23;94916.22;;;16.92;61.67
20003;BME280;10162;41.600;23.806;2023-04-30T08:37:49;94915.94;;;17.22;59.34
20003;BME280;10162;41.600;23.806;2023-04-30T08:40:14;94913.66;;;18.25;56.34
20003;BME280;10162;41.600;23.806;2023-04-30T08:42:45;94916.81;;;19.29;53.93
20003;BME280;10162;41.600;23.806;2023-04-30T08:45:12;94913.47;;;18.80;54.76
20003;BME280;10162;41.600;23.806;2023-04-30T08:47:39;94918.41;;;18.98;53.75
20003;BME280;10162;41.600;23.806;2023-04-30T08:50:07;94913.63;;;18.95;53.64
20003;BME280;10162;41.600;23.806;2023-04-30T08:52:34;94909.91;;;19.28;52.63
20003;BME280;10162;41.600;23.806;2023-04-30T08:55:07;94917.09;;;19.32;51.23
20003;BME280;10162;41.600;23.806;2023-04-30T08:57:33;94914.00;;;19.83;48.71
20003;BME280;10162;41.600;23.806;2023-04-30T08:59:59;94915.16;;;19.55;48.79
20003;BME280;10162;41.600;23.806;2023-04-30T09:02:26;94906.72;;;19.63;49.52
20003;BME280;10162;41.600;23.806;2023-04-30T09:04:52;94918.06;;;20.00;49.02
20003;BME280;10162;41.600;23.806;2023-04-30T09:07:19;94901.66;;;20.03;49.82
20003;BME280;10162;41.600;23.806;2023-04-30T09:09:51;94904.72;;;19.85;48.63
20003;BME280;10162;41.600;23.806;2023-04-30T09:12:18;94909.44;;;19.73;47.77
20003;BME280;10162;41.600;23.806;2023-04-30T09:14:57;94900.88;;;20.13;47.45
20003;BME280;10162;41.600;23.806;2023-04-30T09:17:25;94897.63;;;19.96;46.52
20003;BME280;10162;41.600;23.806;2023-04-30T09:19:51;94892.09;;;19.55;47.51
20003;BME280;10162;41.600;23.806;2023-04-30T09:22:19;94886.66;;;19.40;47.34
20003;BME280;10162;41.600;23.806;2023-04-30T09:24:47;94882.50;;;19.96;46.93
20003;BME280;10162;41.600;23.806;2023-04-30T09:27:20;94873.13;;;19.78;46.43
20003;BME280;10162;41.600;23.806;2023-04-30T09:29:47;94886.47;;;19.94;46.46
20003;BME280;10162;41.600;23.806;2023-04-30T09:32:13;94875.13;;;20.08;45.54
20003;BME280;10162;41.600;23.806;2023-04-30T09:34:41;94872.56;;;20.34;43.87
20003;BME280;10162;41.600;23.806;2023-04-30T09:37:08;94872.16;;;20.77;44.90
20003;BME280;10162;41.600;23.806;2023-04-30T09:40:03;94867.88;;;20.61;43.51
20003;BME280;10162;41.600;23.806;2023-04-30T09:42:29;94854.88;;;21.05;42.49
20003;BME280;10162;41.600;23.806;2023-04-30T09:44:55;94857.53;;;21.00;42.83
20003;BME280;10162;41.600;23.806;2023-04-30T09:47:22;94852.75;;;20.92;41.30
20003;BME280;10162;41.600;23.806;2023-04-30T09:49:49;94858.44;;;20.18;40.68
20003;BME280;10162;41.600;23.806;2023-04-30T09:52:20;94855.41;;;21.37;40.60
20003;BME280;10162;41.600;23.806;2023-04-30T09:54:46;94836.53;;;20.78;41.88
20003;BME280;10162;41.600;23.806;2023-04-30T09:57:14;94840.66;;;20.29;41.88
20003;BME280;10162;41.600;23.806;2023-04-30T09:59:43;94832.66;;;20.13;42.45
20003;BME280;10162;41.600;23.806;2023-04-30T10:02:14;94834.56;;;19.61;43.26
20003;BME280;10162;41.600;23.806;2023-04-30T10:04:42;94833.28;;;19.26;43.78
20003;BME280;10162;41.600;23.806;2023-04-30T10:07:15;94821.25;;;20.08;42.71
20003;BME280;10162;41.600;23.806;2023-04-30T10:10:07;94834.75;;;20.06;43.49
20003;BME280;10162;41.600;23.806;2023-04-30T10:12:47;94822.28;;;20.02;42.06
20003;BME280;10162;41.600;23.806;2023-04-30T10:15:18;94833.03;;;20.32;42.19
20003;BME280;10162;41.600;23.806;2023-04-30T10:17:53;94822.94;;;20.39;41.85
20003;BME280;10162;41.600;23.806;2023-04-30T10:20:24;94824.06;;;20.99;41.33
20003;BME280;10162;41.600;23.806;2023-04-30T10:22:53;94824.84;;;20.89;40.23
20003;BME280;10162;41.600;23.806;2023-04-30T10:25:20;94813.63;;;21.58;38.02
20003;BME280;10162;41.600;23.806;2023-04-30T10:27:47;94812.63;;;22.13;37.46
20003;BME280;10162;41.600;23.806;2023-04-30T10:30:13;94819.41;;;22.40;37.43
20003;BME280;10162;41.600;23.806;2023-04-30T10:32:52;94817.16;;;22.57;36.86
20003;BME280;10162;41.600;23.806;2023-04-30T10:35:25;94812.03;;;22.27;37.12
20003;BME280;10162;41.600;23.806;2023-04-30T10:38:04;94811.94;;;22.81;35.86
20003;BME280;10162;41.600;23.806;2023-04-30T10:40:38;94813.25;;;21.85;37.29
20003;BME280;10162;41.600;23.806;2023-04-30T10:43:10;94808.41;;;22.02;36.20
20003;BME280;10162;41.600;23.806;2023-04-30T10:45:36;94800.09;;;22.58;36.91
20003;BME280;10162;41.600;23.806;2023-04-30T10:48:03;94795.69;;;22.82;36.28
20003;BME280;10162;41.600;23.806;2023-04-30T10:50:29;94802.13;;;22.76;35.53
20003;BME280;10162;41.600;23.806;2023-04-30T10:53:04;94793.16;;;21.43;36.39
20003;BME280;10162;41.600;23.806;2023-04-30T10:55:31;94802.78;;;21.19;36.73
20003;BME280;10162;41.600;23.806;2023-04-30T10:57:58;94789.22;;;21.06;35.66
20003;BME280;10162;41.600;23.806;2023-04-30T11:00:28;94792.41;;;21.08;36.74
20003;BME280;10162;41.600;23.806;2023-04-30T11:03:02;94799.59;;;22.07;36.46
20003;BME280;10162;41.600;23.806;2023-04-30T11:05:38;94794.31;;;22.46;36.01
20003;BME280;10162;41.600;23.806;2023-04-30T11:08:04;94790.81;;;22.50;34.36
20003;BME280;10162;41.600;23.806;2023-04-30T11:10:56;94779.44;;;22.40;34.22
20003;BME280;10162;41.600;23.806;2023-04-30T11:13:26;94783.28;;;22.62;34.72
20003;BME280;10162;41.600;23.806;2023-04-30T11:15:52;94778.59;;;23.17;34.64
20003;BME280;10162;41.600;23.806;2023-04-30T11:18:18;94765.25;;;23.41;33.55
20003;BME280;10162;41.600;23.806;2023-04-30T11:20:50;94773.19;;;23.51;33.80
20003;BME280;10162;41.600;23.806;2023-04-30T11:23:20;94763.16;;;23.38;35.01
20003;BME280;10162;41.600;23.806;2023-04-30T11:25:47;94760.69;;;22.55;35.93
20003;BME280;10162;41.600;23.806;2023-04-30T11:28:19;94762.19;;;22.27;36.36
20003;BME280;10162;41.600;23.806;2023-04-30T11:30:58;94763.97;;;22.81;36.24
20003;BME280;10162;41.600;23.806;2023-04-30T11:33:26;94764.50;;;22.00;35.97
20003;BME280;10162;41.600;23.806;2023-04-30T11:35:53;94768.72;;;22.50;35.74
20003;BME280;10162;41.600;23.806;2023-04-30T11:38:44;94769.53;;;22.84;34.79
20003;BME280;10162;41.600;23.806;2023-04-30T11:41:11;94756.53;;;22.44;35.42
20003;BME280;10162;41.600;23.806;2023-04-30T11:43:37;94756.03;;;22.37;35.56
20003;BME280;10162;41.600;23.806;2023-04-30T11:46:10;94778.50;;;22.20;34.14
20003;BME280;10162;41.600;23.806;2023-04-30T11:48:38;94784.28;;;21.78;34.53
20003;BME280;10162;41.600;23.806;2023-04-30T11:53:33;94789.50;;;19.61;37.87
20003;BME280;10162;41.600;23.806;2023-04-30T11:56:02;94789.50;;;19.61;38.97
20003;BME280;10162;41.600;23.806;2023-04-30T11:58:32;94784.50;;;19.22;39.76
20003;BME280;10162;41.600;23.806;2023-04-30T12:01:00;94783.38;;;18.71;39.61
20003;BME280;10162;41.600;23.806;2023-04-30T12:03:27;94805.94;;;18.79;39.61
20003;BME280;10162;41.600;23.806;2023-04-30T12:05:53;94789.22;;;18.73;40.39
20003;BME280;10162;41.600;23.806;2023-04-30T12:08:19;94797.06;;;18.95;40.71
20003;BME280;10162;41.600;23.806;2023-04-30T12:10:45;94776.84;;;19.78;39.00
20003;BME280;10162;41.600;23.806;2023-04-30T12:13:14;94779.94;;;20.88;37.88
20003;BME280;10162;41.600;23.806;2023-04-30T12:15:56;94767.31;;;21.64;36.27
20003;BME280;10162;41.600;23.806;2023-04-30T12:18:23;94765.31;;;20.40;37.32
20003;BME280;10162;41.600;23.806;2023-04-30T12:20:49;94772.91;;;21.63;35.79
20003;BME280;10162;41.600;23.806;2023-04-30T12:23:16;94757.09;;;20.56;35.70
20003;BME280;10162;41.600;23.806;2023-04-30T12:25:42;94778.09;;;20.73;35.85
20003;BME280;10162;41.600;23.806;2023-04-30T12:28:09;94754.72;;;20.55;35.65
20003;BME280;10162;41.600;23.806;2023-04-30T12:30:35;94761.31;;;21.08;34.64
20003;BME280;10162;41.600;23.806;2023-04-30T12:33:03;94756.13;;;21.67;34.27
20003;BME280;10162;41.600;23.806;2023-04-30T12:35:30;94747.16;;;22.07;31.03
20003;BME280;10162;41.600;23.806;2023-04-30T12:38:02;94760.41;;;21.53;31.33
20003;BME280;10162;41.600;23.806;2023-04-30T12:40:28;94755.00;;;22.33;31.06
20003;BME280;10162;41.600;23.806;2023-04-30T12:43:07;94753.75;;;21.56;31.92
20003;BME280;10162;41.600;23.806;2023-04-30T12:48:14;94746.44;;;21.92;32.60
20003;BME280;10162;41.600;23.806;2023-04-30T12:50:40;94752.41;;;21.63;36.46
20003;BME280;10162;41.600;23.806;2023-04-30T12:53:08;94742.72;;;20.98;39.83
20003;BME280;10162;41.600;23.806;2023-04-30T12:55:33;94748.28;;;20.20;40.61
20003;BME280;10162;41.600;23.806;2023-04-30T12:58:07;94750.94;;;20.31;41.97
20003;BME280;10162;41.600;23.806;2023-04-30T13:00:59;94765.50;;;22.14;39.11
20003;BME280;10162;41.600;23.806;2023-04-30T13:03:26;94750.63;;;22.08;38.77
20003;BME280;10162;41.600;23.806;2023-04-30T13:05:52;94762.28;;;22.95;37.94
20003;BME280;10162;41.600;23.806;2023-04-30T13:08:19;94766.84;;;23.89;36.94
20003;BME280;10162;41.600;23.806;2023-04-30T13:10:47;94786.03;;;23.49;37.63
20003;BME280;10162;41.600;23.806;2023-04-30T13:13:16;94775.88;;;22.15;38.95
20003;BME280;10162;41.600;23.806;2023-04-30T13:15:42;94773.56;;;20.69;41.74
20003;BME280;10162;41.600;23.806;2023-04-30T13:18:09;94781.28;;;20.50;43.03
20003;BME280;10162;41.600;23.806;2023-04-30T13:20:35;94766.59;;;21.33;41.81
20003;BME280;10162;41.600;23.806;2023-04-30T13:23:02;94760.50;;;20.21;44.02
20003;BME280;10162;41.600;23.806;2023-04-30T13:25:29;94769.84;;;20.85;41.99
20003;BME280;10162;41.600;23.806;2023-04-30T13:27:55;94773.94;;;19.90;42.27
20003;BME280;10162;41.600;23.806;2023-04-30T13:30:22;94770.81;;;19.40;44.16
20003;BME280;10162;41.600;23.806;2023-04-30T13:32:49;94773.69;;;19.91;44.96
20003;BME280;10162;41.600;23.806;2023-04-30T13:35:16;94762.53;;;19.84;45.94
20003;BME280;10162;41.600;23.806;2023-04-30T13:37:42;94761.22;;;19.82;46.32
20003;BME280;10162;41.600;23.806;2023-04-30T13:40:08;94766.13;;;20.45;44.16
20003;BME280;10162;41.600;23.806;2023-04-30T13:42:37;94770.28;;;21.53;40.23
20003;BME280;10162;41.600;23.806;2023-04-30T13:45:07;94767.47;;;21.98;41.04
20003;BME280;10162;41.600;23.806;2023-04-30T13:47:34;94759.66;;;22.51;40.53
20003;BME280;10162;41.600;23.806;2023-04-30T13:50:01;94766.22;;;22.24;40.00
20003;BME280;10162;41.600;23.806;2023-04-30T13:52:27;94782.91;;;21.86;40.84
20003;BME280;10162;41.600;23.806;2023-04-30T13:54:53;94777.03;;;20.84;41.92
20003;BME280;10162;41.600;23.806;2023-04-30T13:57:18;94765.31;;;21.21;41.88
20003;BME280;10162;41.600;23.806;2023-04-30T13:59:44;94773.00;;;21.12;42.85
20003;BME280;10162;41.600;23.806;2023-04-30T14:02:10;94780.34;;;21.61;43.78
20003;BME280;10162;41.600;23.806;2023-04-30T14:04:36;94784.44;;;21.13;43.62
20003;BME280;10162;41.600;23.806;2023-04-30T14:07:04;94803.81;;;19.60;53.23
20003;BME280;10162;41.600;23.806;2023-04-30T14:09:30;94800.31;;;18.43;56.70
20003;BME280;10162;41.600;23.806;2023-04-30T14:11:56;94804.81;;;17.94;65.78
20003;BME280;10162;41.600;23.806;2023-04-30T14:14:27;94818.06;;;16.79;61.05
20003;BME280;10162;41.600;23.806;2023-04-30T14:16:53;94827.69;;;16.68;66.44
20003;BME280;10162;41.600;23.806;2023-04-30T14:19:22;94838.53;;;16.72;72.61
20003;BME280;10162;41.600;23.806;2023-04-30T14:21:49;94827.72;;;15.83;71.20
20003;BME280;10162;41.600;23.806;2023-04-30T14:24:15;94836.31;;;15.67;71.73
20003;BME280;10162;41.600;23.806;2023-04-30T14:26:44;94833.28;;;15.35;73.89
20003;BME280;10162;41.600;23.806;2023-04-30T14:29:12;94835.09;;;15.46;73.04
20003;BME280;10162;41.600;23.806;2023-04-30T14:31:40;94829.50;;;15.54;71.72
20003;BME280;10162;41.600;23.806;2023-04-30T14:34:05;94838.94;;;15.79;71.13
20003;BME280;10162;41.600;23.806;2023-04-30T14:36:33;94822.00;;;15.75;69.76
20003;BME280;10162;41.600;23.806;2023-04-30T14:38:59;94816.22;;;15.38;70.63
20003;BME280;10162;41.600;23.806;2023-04-30T14:41:28;94827.66;;;15.55;69.45
20003;BME280;10162;41.600;23.806;2023-04-30T14:43:53;94824.19;;;15.66;71.77
20003;BME280;10162;41.600;23.806;2023-04-30T14:46:20;94801.53;;;15.93;66.04
20003;BME280;10162;41.600;23.806;2023-04-30T14:48:46;94820.03;;;16.10;66.97